Briefing drone pour Rouillac

Rechercher une autre localisation

Conditions de vol :


Nous sommes le : Lundi 27 septembre 2021
Il est 00:42 UTC (02:42 LT)

Lever de soleil : 05:27 UTC (07:27 LT)
Coucher de soleil : 18:15 UTC (20:15 LT)

Météo

L'essentiel des conditions de vol

VIGILANCE MÉTÉO FRANCE - Charente (16)
Pas de vigilances particulieres
CARTE TEMSI
CARTES DES FRONTS
METAR de LFBU
LFBU 270030Z AUTO VRB03KT CAVOK 16/15 Q1018

Date d'émission: 27/09/2021
Heure d'émission: 00:30 UTC
Vent: Variable 3 KT (6 km/h)
Visibilité horizontale: > 10 km
Plafond : Plafond et visibilité OK (CAVOK)
Température: 16 °C
Point de rosée: 15 °C
Humidité: 94%
Pression (QNH): 1018 hPa
TAF de LFBU
AMD LFBU 262111Z 2621/2718 CNL

Conditions prévues :

Heure d'émission : Bulletin éffectué le 26 à 21:00 UTC
Prévision : Valide du 26 a 21:00 UTC au 27 a 18:00 UTC
Nuages : à 0ft (0 m)
WEBCAM POUR ROUILLAC

Réglementation

Voler en sécurité

CARTES AERONAUTIQUE 1/500.000
CARTES VAC (LFBU)
SUP AIP




Chargement des AIP...
NOTAM (ROUILLAC + Terrain à proximité / FIR )




Chargement des NOTAMS...
CONTACT PREFECTURE 16


Avertissement : Les données mises à disposition sont indicatives. Oxygène Drone ne pourra être tenu responsable de dégâts causés aux biens et aux personnes.